createdAt,value
2022-08-05T00:00:01.360Z,998.22
2022-08-05T00:05:01.309Z,998.1
2022-08-05T00:10:01.189Z,998.02
2022-08-05T00:15:40.746Z,998.03
2022-08-05T00:20:02.741Z,998.01
2022-08-05T00:25:01.788Z,997.92
2022-08-05T00:30:03.231Z,997.87
2022-08-05T00:35:06.603Z,997.75
2022-08-05T00:40:01.862Z,997.69
2022-08-05T00:45:01.286Z,997.65
2022-08-05T00:50:01.269Z,997.64
2022-08-05T00:55:01.749Z,997.66
2022-08-05T01:00:01.319Z,997.62
2022-08-05T01:05:01.361Z,997.78
2022-08-05T01:10:01.415Z,997.87
2022-08-05T01:15:05.094Z,997.9
2022-08-05T01:20:03.431Z,997.9
2022-08-05T01:25:01.515Z,997.94
2022-08-05T01:30:01.331Z,998.04
2022-08-05T01:35:01.772Z,997.92
2022-08-05T01:40:01.225Z,997.78
2022-08-05T01:45:02.309Z,997.68
2022-08-05T01:50:03.029Z,997.58
2022-08-05T01:55:01.862Z,997.38
2022-08-05T02:00:01.653Z,997.67
2022-08-05T02:05:01.707Z,997.74
2022-08-05T02:10:01.755Z,997.85
2022-08-05T02:15:03.190Z,998.11
2022-08-05T02:20:01.787Z,998.7
2022-08-05T02:25:01.759Z,999.35
2022-08-05T02:30:01.908Z,999.47
2022-08-05T02:35:13.353Z,999.51
2022-08-05T02:40:01.294Z,999.4
2022-08-05T02:45:01.848Z,999.56
2022-08-05T02:50:01.502Z,999.58
2022-08-05T02:55:05.161Z,999.68
2022-08-05T03:00:01.473Z,999.75
2022-08-05T03:05:01.416Z,999.83
2022-08-05T03:10:01.163Z,999.56
2022-08-05T03:15:01.983Z,999.59
2022-08-05T03:20:01.728Z,999.7
2022-08-05T03:25:02.316Z,999.71
2022-08-05T03:30:08.300Z,999.79
2022-08-05T03:35:01.576Z,999.87
2022-08-05T03:40:03.842Z,999.78
2022-08-05T03:45:22.124Z,999.77
2022-08-05T03:50:01.339Z,999.66
2022-08-05T03:56:05.555Z,999.54
2022-08-05T04:00:01.758Z,999.33
2022-08-05T04:05:01.634Z,999.18
2022-08-05T04:10:02.954Z,999.32
2022-08-05T04:15:01.608Z,999.14
2022-08-05T04:20:01.387Z,998.8
2022-08-05T04:25:01.664Z,998.28
2022-08-05T04:30:03.735Z,997.47
2022-08-05T04:35:01.225Z,997.84
2022-08-05T04:40:01.337Z,997.69
2022-08-05T04:45:01.213Z,997.9
2022-08-05T04:50:11.081Z,997.9
2022-08-05T04:55:14.655Z,997.79
2022-08-05T05:00:01.667Z,997.81
2022-08-05T05:05:03.007Z,998.65
2022-08-05T05:10:02.168Z,998.64
2022-08-05T05:15:03.689Z,998.74
2022-08-05T05:20:01.704Z,998.92
2022-08-05T05:25:16.630Z,998.92
2022-08-05T05:30:04.606Z,999.06
2022-08-05T05:35:02.026Z,998.98
2022-08-05T05:40:01.487Z,999.14
2022-08-05T05:45:03.060Z,999.26
2022-08-05T05:50:01.958Z,999.24
2022-08-05T05:55:01.762Z,999.25
2022-08-05T06:00:01.207Z,999.25
2022-08-05T06:05:01.746Z,999.26
2022-08-05T06:10:04.724Z,999.11
2022-08-05T06:15:01.986Z,999.04
2022-08-05T06:20:01.369Z,999.08
2022-08-05T06:25:01.611Z,999.07
2022-08-05T06:30:04.538Z,999.3
2022-08-05T06:35:05.860Z,999.38
2022-08-05T06:40:02.584Z,999.29
2022-08-05T06:45:05.321Z,999.37
2022-08-05T06:50:05.416Z,999.48
2022-08-05T06:55:02.513Z,999.56
2022-08-05T07:00:01.166Z,999.61
2022-08-05T07:05:01.747Z,999.66
2022-08-05T07:10:03.391Z,999.77
2022-08-05T07:15:01.883Z,999.84
2022-08-05T07:20:33.366Z,999.86
2022-08-05T07:25:23.450Z,999.92
2022-08-05T07:30:24.717Z,999.98
2022-08-05T07:36:03.458Z,1000.03
2022-08-05T07:40:26.238Z,1000.12
2022-08-05T07:45:01.177Z,1000.1
2022-08-05T07:50:02.099Z,1000.18
2022-08-05T07:55:01.937Z,1000.24
2022-08-05T08:00:01.699Z,1000.39
2022-08-05T08:05:01.143Z,1000.44
2022-08-05T08:10:01.513Z,1000.47
2022-08-05T08:15:02.439Z,1000.59
2022-08-05T08:20:43.557Z,1000.66
2022-08-05T08:25:03.172Z,1000.8
2022-08-05T08:30:05.394Z,1000.85
2022-08-05T08:35:01.278Z,1000.83
2022-08-05T08:40:01.493Z,1000.82
2022-08-05T08:45:23.174Z,1000.83
2022-08-05T08:50:22.975Z,1000.82
2022-08-05T08:55:01.410Z,1000.85
2022-08-05T09:00:01.668Z,1000.84
2022-08-05T09:05:16.372Z,1000.73
2022-08-05T09:10:01.589Z,1000.61
2022-08-05T09:15:06.397Z,1000.57
2022-08-05T09:20:05.041Z,1000.72
2022-08-05T09:25:01.492Z,1000.74
2022-08-05T09:30:06.043Z,1000.76
2022-08-05T09:35:01.337Z,1000.82
2022-08-05T09:40:02.222Z,1000.96
2022-08-05T09:45:17.770Z,1001.02
2022-08-05T09:50:03.350Z,1001.11
2022-08-05T09:55:55.484Z,1001.17
2022-08-05T10:00:07.296Z,1001.27
2022-08-05T10:05:01.602Z,1001.24
2022-08-05T10:10:15.177Z,1001.27
2022-08-05T10:15:01.434Z,1001.49
2022-08-05T10:20:04.134Z,1001.66
2022-08-05T10:25:02.096Z,1001.82
2022-08-05T10:30:41.596Z,1001.88
2022-08-05T10:35:01.723Z,1001.96
2022-08-05T10:40:16.815Z,1002.14
2022-08-05T10:45:01.376Z,1002.19
2022-08-05T10:50:32.341Z,1002.23
2022-08-05T10:55:01.903Z,1002.29
2022-08-05T11:00:09.090Z,1002.45
2022-08-05T11:05:01.586Z,1002.42
2022-08-05T11:10:09.537Z,1002.48
2022-08-05T11:15:19.682Z,1002.55
2022-08-05T11:20:10.334Z,1002.68
2022-08-05T11:26:03.565Z,1002.83
2022-08-05T11:30:01.752Z,1002.97
2022-08-05T11:35:01.882Z,1003.06
2022-08-05T11:40:03.668Z,1003.13
2022-08-05T11:45:01.593Z,1003.22
2022-08-05T11:50:01.778Z,1003.22
2022-08-05T11:55:07.512Z,1003.24
2022-08-05T12:00:02.085Z,1003.29
2022-08-05T12:05:06.968Z,1003.3
2022-08-05T12:10:08.168Z,1003.26
2022-08-05T12:15:01.714Z,1003.23
2022-08-05T12:20:27.120Z,1003.27
2022-08-05T12:25:01.286Z,1003.49
2022-08-05T12:30:03.321Z,1003.57
2022-08-05T12:35:04.112Z,1003.55
2022-08-05T12:40:03.168Z,1003.51
2022-08-05T12:45:01.163Z,1003.51
2022-08-05T12:50:03.389Z,1003.65
2022-08-05T12:55:01.934Z,1003.68
2022-08-05T13:01:57.568Z,1003.78
2022-08-05T13:05:01.693Z,1003.85
2022-08-05T13:10:01.764Z,1003.81
2022-08-05T13:15:07.416Z,1003.81
2022-08-05T13:20:01.294Z,1003.84
2022-08-05T13:25:05.584Z,1003.79
2022-08-05T13:30:36.102Z,1003.81
2022-08-05T13:35:01.418Z,1003.8
2022-08-05T13:40:15.825Z,1003.81
2022-08-05T13:45:01.404Z,1003.81
2022-08-05T13:50:04.519Z,1003.84
2022-08-05T13:55:01.548Z,1003.85
2022-08-05T14:00:01.944Z,1003.89
2022-08-05T14:05:01.154Z,1003.84
2022-08-05T14:10:01.852Z,1003.81
2022-08-05T14:15:05.868Z,1003.83
2022-08-05T14:20:04.376Z,1003.87
2022-08-05T14:25:02.067Z,1003.88
2022-08-05T14:30:02.052Z,1003.8
2022-08-05T14:35:01.646Z,1003.83
2022-08-05T14:40:01.732Z,1003.83
2022-08-05T14:45:02.068Z,1003.79
2022-08-05T14:50:04.865Z,1003.74
2022-08-05T14:55:01.292Z,1003.76
2022-08-05T15:00:02.084Z,1003.79
2022-08-05T15:05:01.593Z,1003.78
2022-08-05T15:10:03.348Z,1003.82
2022-08-05T15:15:01.379Z,1003.79
2022-08-05T15:20:01.180Z,1003.82
2022-08-05T15:25:11.837Z,1003.84
2022-08-05T15:30:02.118Z,1003.94
2022-08-05T15:35:04.095Z,1003.99
2022-08-05T15:40:59.682Z,1004.04
2022-08-05T15:45:01.161Z,1004.08
2022-08-05T15:50:01.984Z,1004.13
2022-08-05T15:55:01.312Z,1004.17
2022-08-05T16:00:02.468Z,1004.2
2022-08-05T16:05:01.765Z,1004.25
2022-08-05T16:10:01.956Z,1004.24
2022-08-05T16:15:01.951Z,1004.32
2022-08-05T16:20:04.199Z,1004.32
2022-08-05T16:25:09.350Z,1004.3
2022-08-05T16:30:01.436Z,1004.37
2022-08-05T16:35:01.835Z,1004.39
2022-08-05T16:40:07.388Z,1004.46
2022-08-05T16:45:01.211Z,1004.5
2022-08-05T16:50:02.020Z,1004.61
2022-08-05T16:55:01.776Z,1004.58
2022-08-05T17:00:07.403Z,1004.66
2022-08-05T17:05:01.223Z,1004.68
2022-08-05T17:10:01.299Z,1004.71
2022-08-05T17:15:01.709Z,1004.76
2022-08-05T17:20:01.183Z,1004.82
2022-08-05T17:25:01.170Z,1004.79
2022-08-05T17:30:02.514Z,1004.88
2022-08-05T17:35:02.031Z,1004.92
2022-08-05T17:40:01.375Z,1005.09
2022-08-05T17:45:09.859Z,1005.1
2022-08-05T17:50:10.276Z,1005.12
2022-08-05T17:55:03.067Z,1005.16
2022-08-05T18:00:04.885Z,1005.21
2022-08-05T18:05:02.043Z,1005.33
2022-08-05T18:10:10.150Z,1005.38
2022-08-05T18:15:01.428Z,1005.39
2022-08-05T18:20:01.787Z,1005.45
2022-08-05T18:25:01.646Z,1005.6
2022-08-05T18:30:02.106Z,1005.65
2022-08-05T18:35:01.921Z,1005.74
2022-08-05T18:40:33.883Z,1005.72
2022-08-05T18:45:01.809Z,1005.8
2022-08-05T18:50:01.283Z,1005.81
2022-08-05T18:55:01.643Z,1005.83
2022-08-05T19:00:07.546Z,1005.84
2022-08-05T19:06:06.002Z,1005.95
2022-08-05T19:10:01.571Z,1006.01
2022-08-05T19:15:02.684Z,1006.1
2022-08-05T19:20:01.895Z,1006.18
2022-08-05T19:25:02.653Z,1006.29
2022-08-05T19:30:01.308Z,1006.4
2022-08-05T19:35:05.952Z,1006.58
2022-08-05T19:40:01.717Z,1006.55
2022-08-05T19:45:01.490Z,1006.69
2022-08-05T19:50:01.257Z,1006.78
2022-08-05T19:55:07.169Z,1006.84
2022-08-05T20:00:04.475Z,1006.94
2022-08-05T20:05:01.297Z,1007.08
2022-08-05T20:10:01.556Z,1007.12
2022-08-05T20:15:01.193Z,1007.18
2022-08-05T20:20:03.424Z,1007.33
2022-08-05T20:25:01.467Z,1007.39
2022-08-05T20:30:01.265Z,1007.47
2022-08-05T20:35:01.909Z,1007.51
2022-08-05T20:40:02.090Z,1007.55
2022-08-05T20:45:01.634Z,1007.57
2022-08-05T20:50:02.458Z,1007.65
2022-08-05T20:55:54.978Z,1007.66
2022-08-05T21:00:19.472Z,1007.71
2022-08-05T21:05:02.351Z,1007.8
2022-08-05T21:10:01.599Z,1007.86
2022-08-05T21:15:01.688Z,1007.89
2022-08-05T21:20:05.758Z,1007.92
2022-08-05T21:25:02.083Z,1007.95
2022-08-05T21:30:02.142Z,1007.96
2022-08-05T21:35:08.303Z,1007.99
2022-08-05T21:40:01.706Z,1008.15
2022-08-05T21:45:01.162Z,1008.29
2022-08-05T21:50:01.896Z,1008.35
2022-08-05T21:55:06.961Z,1008.34
2022-08-05T22:00:05.323Z,1008.42
2022-08-05T22:05:01.509Z,1008.41
2022-08-05T22:10:01.429Z,1008.35
2022-08-05T22:15:01.315Z,1008.35
2022-08-05T22:20:13.347Z,1008.38
2022-08-05T22:25:01.156Z,1008.44
2022-08-05T22:30:01.256Z,1008.5
2022-08-05T22:35:01.283Z,1008.44
2022-08-05T22:40:01.535Z,1008.55
2022-08-05T22:45:02.115Z,1008.66
2022-08-05T22:50:21.600Z,1008.74
2022-08-05T22:55:01.545Z,1008.8
2022-08-05T23:00:02.770Z,1008.88
2022-08-05T23:05:05.113Z,1008.93
2022-08-05T23:10:02.904Z,1008.97
2022-08-05T23:15:03.210Z,1009.04
2022-08-05T23:20:02.298Z,1009.11
2022-08-05T23:25:01.356Z,1009.24
2022-08-05T23:30:01.964Z,1009.3
2022-08-05T23:35:01.496Z,1009.35
2022-08-05T23:40:01.551Z,1009.4
2022-08-05T23:45:01.135Z,1009.45
2022-08-05T23:50:01.556Z,1009.59
2022-08-05T23:55:01.485Z,1009.57
